sensor_id;sensor_type;location;lat;lon;timestamp;P1;durP1;ratioP1;P2;durP2;ratioP2
68866;SDS011;56451;44.804;20.476;2023-08-01T00:00:57;5.93;;;4.15;;
68866;SDS011;56451;44.804;20.476;2023-08-01T00:03:24;6.60;;;3.85;;
68866;SDS011;56451;44.804;20.476;2023-08-01T00:05:50;8.05;;;4.60;;
68866;SDS011;56451;44.804;20.476;2023-08-01T00:08:16;6.87;;;4.10;;
68866;SDS011;56451;44.804;20.476;2023-08-01T00:10:42;8.10;;;4.10;;
68866;SDS011;56451;44.804;20.476;2023-08-01T00:13:08;7.32;;;4.28;;
68866;SDS011;56451;44.804;20.476;2023-08-01T00:15:34;6.77;;;4.37;;
68866;SDS011;56451;44.804;20.476;2023-08-01T00:18:01;7.40;;;4.50;;
68866;SDS011;56451;44.804;20.476;2023-08-01T00:20:27;8.13;;;4.53;;
68866;SDS011;56451;44.804;20.476;2023-08-01T00:22:52;7.90;;;4.73;;
68866;SDS011;56451;44.804;20.476;2023-08-01T00:25:18;8.57;;;4.10;;
68866;SDS011;56451;44.804;20.476;2023-08-01T00:27:45;7.25;;;4.25;;
68866;SDS011;56451;44.804;20.476;2023-08-01T00:30:11;9.55;;;4.30;;
68866;SDS011;56451;44.804;20.476;2023-08-01T00:32:37;7.57;;;4.00;;
68866;SDS011;56451;44.804;20.476;2023-08-01T00:35:03;7.28;;;4.00;;
68866;SDS011;56451;44.804;20.476;2023-08-01T00:37:30;7.85;;;3.92;;
68866;SDS011;56451;44.804;20.476;2023-08-01T00:39:56;5.15;;;3.90;;
68866;SDS011;56451;44.804;20.476;2023-08-01T00:42:21;7.47;;;3.73;;
68866;SDS011;56451;44.804;20.476;2023-08-01T00:44:47;9.18;;;3.70;;
68866;SDS011;56451;44.804;20.476;2023-08-01T00:47:14;6.63;;;3.90;;
68866;SDS011;56451;44.804;20.476;2023-08-01T00:49:40;6.15;;;3.70;;
68866;SDS011;56451;44.804;20.476;2023-08-01T00:52:07;8.20;;;3.97;;
68866;SDS011;56451;44.804;20.476;2023-08-01T00:54:34;5.63;;;3.83;;
68866;SDS011;56451;44.804;20.476;2023-08-01T00:57:03;6.82;;;3.92;;
68866;SDS011;56451;44.804;20.476;2023-08-01T00:59:29;5.65;;;4.18;;
68866;SDS011;56451;44.804;20.476;2023-08-01T01:01:56;4.90;;;3.63;;
68866;SDS011;56451;44.804;20.476;2023-08-01T01:04:22;7.43;;;3.70;;
68866;SDS011;56451;44.804;20.476;2023-08-01T01:09:29;6.20;;;3.63;;
68866;SDS011;56451;44.804;20.476;2023-08-01T01:11:57;5.63;;;3.53;;
68866;SDS011;56451;44.804;20.476;2023-08-01T01:14:25;4.63;;;3.50;;
68866;SDS011;56451;44.804;20.476;2023-08-01T01:16:52;5.30;;;3.13;;
68866;SDS011;56451;44.804;20.476;2023-08-01T01:19:18;6.80;;;3.80;;
68866;SDS011;56451;44.804;20.476;2023-08-01T01:21:44;5.07;;;3.47;;
68866;SDS011;56451;44.804;20.476;2023-08-01T01:24:11;6.63;;;3.20;;
68866;SDS011;56451;44.804;20.476;2023-08-01T01:26:40;5.95;;;3.47;;
68866;SDS011;56451;44.804;20.476;2023-08-01T01:29:06;7.63;;;3.50;;
68866;SDS011;56451;44.804;20.476;2023-08-01T01:31:34;6.33;;;3.40;;
68866;SDS011;56451;44.804;20.476;2023-08-01T01:34:02;4.70;;;2.63;;
68866;SDS011;56451;44.804;20.476;2023-08-01T01:36:29;6.47;;;3.05;;
68866;SDS011;56451;44.804;20.476;2023-08-01T01:38:55;6.07;;;2.92;;
68866;SDS011;56451;44.804;20.476;2023-08-01T01:41:21;3.23;;;2.60;;
68866;SDS011;56451;44.804;20.476;2023-08-01T01:43:48;9.75;;;3.55;;
68866;SDS011;56451;44.804;20.476;2023-08-01T01:46:14;7.32;;;3.15;;
68866;SDS011;56451;44.804;20.476;2023-08-01T01:48:40;6.10;;;2.72;;
68866;SDS011;56451;44.804;20.476;2023-08-01T01:51:08;5.15;;;2.90;;
68866;SDS011;56451;44.804;20.476;2023-08-01T01:53:34;7.07;;;2.77;;
68866;SDS011;56451;44.804;20.476;2023-08-01T01:56:00;7.10;;;3.17;;
68866;SDS011;56451;44.804;20.476;2023-08-01T01:58:26;5.40;;;3.00;;
68866;SDS011;56451;44.804;20.476;2023-08-01T02:00:52;4.70;;;2.67;;
68866;SDS011;56451;44.804;20.476;2023-08-01T02:03:18;3.87;;;2.80;;
68866;SDS011;56451;44.804;20.476;2023-08-01T02:05:44;4.53;;;3.00;;
68866;SDS011;56451;44.804;20.476;2023-08-01T02:08:10;5.78;;;2.92;;
68866;SDS011;56451;44.804;20.476;2023-08-01T02:10:36;6.13;;;3.22;;
68866;SDS011;56451;44.804;20.476;2023-08-01T02:13:02;7.38;;;3.35;;
68866;SDS011;56451;44.804;20.476;2023-08-01T02:15:28;7.13;;;3.57;;
68866;SDS011;56451;44.804;20.476;2023-08-01T02:17:54;7.18;;;3.33;;
68866;SDS011;56451;44.804;20.476;2023-08-01T02:20:21;5.43;;;2.72;;
68866;SDS011;56451;44.804;20.476;2023-08-01T02:22:47;5.68;;;3.38;;
68866;SDS011;56451;44.804;20.476;2023-08-01T02:25:13;5.70;;;3.43;;
68866;SDS011;56451;44.804;20.476;2023-08-01T02:27:39;7.63;;;3.42;;
68866;SDS011;56451;44.804;20.476;2023-08-01T02:30:05;7.60;;;3.35;;
68866;SDS011;56451;44.804;20.476;2023-08-01T02:38:38;6.63;;;3.40;;
68866;SDS011;56451;44.804;20.476;2023-08-01T02:41:04;9.00;;;3.60;;
68866;SDS011;56451;44.804;20.476;2023-08-01T02:43:30;7.28;;;3.25;;
68866;SDS011;56451;44.804;20.476;2023-08-01T02:45:56;4.87;;;2.73;;
68866;SDS011;56451;44.804;20.476;2023-08-01T02:48:22;3.88;;;3.25;;
68866;SDS011;56451;44.804;20.476;2023-08-01T02:50:47;6.97;;;3.22;;
68866;SDS011;56451;44.804;20.476;2023-08-01T02:53:13;5.27;;;3.00;;
68866;SDS011;56451;44.804;20.476;2023-08-01T02:55:39;6.85;;;3.08;;
68866;SDS011;56451;44.804;20.476;2023-08-01T02:58:05;5.07;;;3.35;;
68866;SDS011;56451;44.804;20.476;2023-08-01T03:00:31;7.63;;;3.17;;
68866;SDS011;56451;44.804;20.476;2023-08-01T03:02:57;4.93;;;3.03;;
68866;SDS011;56451;44.804;20.476;2023-08-01T03:05:23;8.47;;;3.63;;
68866;SDS011;56451;44.804;20.476;2023-08-01T03:07:49;6.78;;;3.22;;
68866;SDS011;56451;44.804;20.476;2023-08-01T03:10:15;6.68;;;3.28;;
68866;SDS011;56451;44.804;20.476;2023-08-01T03:12:41;5.07;;;3.10;;
68866;SDS011;56451;44.804;20.476;2023-08-01T03:15:07;4.57;;;3.10;;
68866;SDS011;56451;44.804;20.476;2023-08-01T03:17:34;5.97;;;2.80;;
68866;SDS011;56451;44.804;20.476;2023-08-01T03:20:01;4.93;;;3.00;;
68866;SDS011;56451;44.804;20.476;2023-08-01T03:22:28;6.70;;;3.15;;
68866;SDS011;56451;44.804;20.476;2023-08-01T03:24:54;5.80;;;3.08;;
68866;SDS011;56451;44.804;20.476;2023-08-01T03:27:21;4.67;;;2.67;;
68866;SDS011;56451;44.804;20.476;2023-08-01T03:29:46;5.95;;;3.33;;
68866;SDS011;56451;44.804;20.476;2023-08-01T03:32:13;10.27;;;3.90;;
68866;SDS011;56451;44.804;20.476;2023-08-01T03:34:39;8.68;;;3.70;;
68866;SDS011;56451;44.804;20.476;2023-08-01T03:37:06;7.10;;;3.63;;
68866;SDS011;56451;44.804;20.476;2023-08-01T03:39:32;6.05;;;3.40;;
68866;SDS011;56451;44.804;20.476;2023-08-01T03:41:58;9.93;;;3.78;;
68866;SDS011;56451;44.804;20.476;2023-08-01T03:44:25;8.40;;;3.60;;
68866;SDS011;56451;44.804;20.476;2023-08-01T03:46:52;5.27;;;2.70;;
68866;SDS011;56451;44.804;20.476;2023-08-01T03:49:19;9.15;;;3.30;;
68866;SDS011;56451;44.804;20.476;2023-08-01T03:51:45;4.05;;;3.10;;
68866;SDS011;56451;44.804;20.476;2023-08-01T03:54:11;6.90;;;3.40;;
68866;SDS011;56451;44.804;20.476;2023-08-01T03:56:37;6.93;;;2.93;;
68866;SDS011;56451;44.804;20.476;2023-08-01T03:59:05;7.53;;;3.08;;
68866;SDS011;56451;44.804;20.476;2023-08-01T04:01:32;4.57;;;3.08;;
68866;SDS011;56451;44.804;20.476;2023-08-01T04:03:58;6.60;;;3.47;;
68866;SDS011;56451;44.804;20.476;2023-08-01T04:06:24;8.00;;;3.90;;
68866;SDS011;56451;44.804;20.476;2023-08-01T04:08:50;8.43;;;3.75;;
68866;SDS011;56451;44.804;20.476;2023-08-01T04:11:17;7.63;;;3.45;;
68866;SDS011;56451;44.804;20.476;2023-08-01T04:13:42;10.93;;;4.07;;
68866;SDS011;56451;44.804;20.476;2023-08-01T04:16:08;7.72;;;3.92;;
68866;SDS011;56451;44.804;20.476;2023-08-01T04:18:34;6.80;;;3.33;;
68866;SDS011;56451;44.804;20.476;2023-08-01T04:21:01;7.50;;;3.47;;
68866;SDS011;56451;44.804;20.476;2023-08-01T04:23:27;8.27;;;3.60;;
68866;SDS011;56451;44.804;20.476;2023-08-01T04:25:53;5.80;;;3.00;;
68866;SDS011;56451;44.804;20.476;2023-08-01T04:28:19;6.68;;;3.20;;
68866;SDS011;56451;44.804;20.476;2023-08-01T04:30:48;6.97;;;3.47;;
68866;SDS011;56451;44.804;20.476;2023-08-01T04:33:15;5.88;;;4.05;;
68866;SDS011;56451;44.804;20.476;2023-08-01T04:35:41;6.45;;;5.30;;
68866;SDS011;56451;44.804;20.476;2023-08-01T04:38:07;5.13;;;4.13;;
68866;SDS011;56451;44.804;20.476;2023-08-01T04:40:34;6.38;;;3.88;;
68866;SDS011;56451;44.804;20.476;2023-08-01T04:43:03;8.38;;;3.80;;
68866;SDS011;56451;44.804;20.476;2023-08-01T04:45:29;5.82;;;3.70;;
68866;SDS011;56451;44.804;20.476;2023-08-01T04:47:54;5.80;;;3.07;;
68866;SDS011;56451;44.804;20.476;2023-08-01T04:50:20;7.28;;;3.00;;
68866;SDS011;56451;44.804;20.476;2023-08-01T04:52:46;5.03;;;2.88;;
68866;SDS011;56451;44.804;20.476;2023-08-01T04:55:12;7.33;;;2.77;;
68866;SDS011;56451;44.804;20.476;2023-08-01T04:57:38;7.40;;;2.65;;
68866;SDS011;56451;44.804;20.476;2023-08-01T05:00:04;5.68;;;2.65;;
68866;SDS011;56451;44.804;20.476;2023-08-01T05:02:30;6.17;;;2.83;;
68866;SDS011;56451;44.804;20.476;2023-08-01T05:04:56;5.70;;;2.67;;
68866;SDS011;56451;44.804;20.476;2023-08-01T05:07:22;7.05;;;2.53;;
68866;SDS011;56451;44.804;20.476;2023-08-01T05:09:48;4.80;;;2.50;;
68866;SDS011;56451;44.804;20.476;2023-08-01T05:12:14;8.70;;;3.27;;
68866;SDS011;56451;44.804;20.476;2023-08-01T05:14:40;4.93;;;2.63;;
68866;SDS011;56451;44.804;20.476;2023-08-01T05:17:06;5.27;;;3.23;;
68866;SDS011;56451;44.804;20.476;2023-08-01T05:19:32;6.53;;;2.97;;
68866;SDS011;56451;44.804;20.476;2023-08-01T05:21:58;5.68;;;2.97;;
68866;SDS011;56451;44.804;20.476;2023-08-01T05:24:23;6.23;;;2.97;;
68866;SDS011;56451;44.804;20.476;2023-08-01T05:26:49;6.22;;;3.00;;
68866;SDS011;56451;44.804;20.476;2023-08-01T05:29:15;3.97;;;2.17;;
68866;SDS011;56451;44.804;20.476;2023-08-01T05:31:41;6.22;;;2.90;;
68866;SDS011;56451;44.804;20.476;2023-08-01T05:34:07;5.77;;;2.20;;
68866;SDS011;56451;44.804;20.476;2023-08-01T05:36:33;5.75;;;2.63;;
68866;SDS011;56451;44.804;20.476;2023-08-01T05:38:59;4.73;;;2.40;;
68866;SDS011;56451;44.804;20.476;2023-08-01T05:41:24;6.00;;;3.00;;
68866;SDS011;56451;44.804;20.476;2023-08-01T05:43:51;9.23;;;3.80;;
68866;SDS011;56451;44.804;20.476;2023-08-01T05:46:17;7.28;;;3.70;;
68866;SDS011;56451;44.804;20.476;2023-08-01T05:48:43;6.72;;;2.78;;
68866;SDS011;56451;44.804;20.476;2023-08-01T05:51:09;5.57;;;2.80;;
68866;SDS011;56451;44.804;20.476;2023-08-01T05:53:35;5.25;;;2.65;;
68866;SDS011;56451;44.804;20.476;2023-08-01T05:56:01;4.00;;;2.05;;
68866;SDS011;56451;44.804;20.476;2023-08-01T05:58:27;6.03;;;2.67;;
68866;SDS011;56451;44.804;20.476;2023-08-01T06:00:53;5.57;;;2.87;;
68866;SDS011;56451;44.804;20.476;2023-08-01T06:03:18;5.25;;;2.17;;
68866;SDS011;56451;44.804;20.476;2023-08-01T06:05:44;5.57;;;2.40;;
68866;SDS011;56451;44.804;20.476;2023-08-01T06:08:10;5.38;;;2.53;;
68866;SDS011;56451;44.804;20.476;2023-08-01T06:10:37;6.57;;;2.28;;
68866;SDS011;56451;44.804;20.476;2023-08-01T06:13:03;4.65;;;2.50;;
68866;SDS011;56451;44.804;20.476;2023-08-01T06:15:29;3.87;;;2.33;;
68866;SDS011;56451;44.804;20.476;2023-08-01T06:17:55;6.45;;;2.15;;
68866;SDS011;56451;44.804;20.476;2023-08-01T06:20:21;5.45;;;2.08;;
68866;SDS011;56451;44.804;20.476;2023-08-01T06:22:47;3.77;;;2.10;;
68866;SDS011;56451;44.804;20.476;2023-08-01T06:25:13;6.30;;;2.05;;
68866;SDS011;56451;44.804;20.476;2023-08-01T06:27:38;5.18;;;1.95;;
68866;SDS011;56451;44.804;20.476;2023-08-01T06:30:05;6.13;;;2.47;;
68866;SDS011;56451;44.804;20.476;2023-08-01T06:32:31;4.00;;;2.40;;
68866;SDS011;56451;44.804;20.476;2023-08-01T06:34:57;5.63;;;1.90;;
68866;SDS011;56451;44.804;20.476;2023-08-01T06:37:23;3.73;;;2.30;;
68866;SDS011;56451;44.804;20.476;2023-08-01T06:39:49;6.97;;;2.30;;
68866;SDS011;56451;44.804;20.476;2023-08-01T06:42:14;5.15;;;1.92;;
68866;SDS011;56451;44.804;20.476;2023-08-01T06:44:41;7.07;;;2.10;;
68866;SDS011;56451;44.804;20.476;2023-08-01T06:47:07;4.10;;;2.00;;
68866;SDS011;56451;44.804;20.476;2023-08-01T06:49:33;3.67;;;1.90;;
68866;SDS011;56451;44.804;20.476;2023-08-01T06:51:59;3.85;;;2.05;;
68866;SDS011;56451;44.804;20.476;2023-08-01T06:54:25;4.10;;;2.00;;
68866;SDS011;56451;44.804;20.476;2023-08-01T06:56:51;3.78;;;1.92;;
68866;SDS011;56451;44.804;20.476;2023-08-01T06:59:17;4.90;;;2.22;;
68866;SDS011;56451;44.804;20.476;2023-08-01T07:01:43;3.90;;;2.20;;
68866;SDS011;56451;44.804;20.476;2023-08-01T07:04:10;3.17;;;1.50;;
68866;SDS011;56451;44.804;20.476;2023-08-01T07:06:36;4.05;;;2.13;;
68866;SDS011;56451;44.804;20.476;2023-08-01T07:09:02;2.85;;;2.00;;
68866;SDS011;56451;44.804;20.476;2023-08-01T07:11:27;4.63;;;2.03;;
68866;SDS011;56451;44.804;20.476;2023-08-01T07:13:53;3.92;;;2.10;;
68866;SDS011;56451;44.804;20.476;2023-08-01T07:16:19;4.13;;;1.87;;
68866;SDS011;56451;44.804;20.476;2023-08-01T07:18:45;6.55;;;2.42;;
68866;SDS011;56451;44.804;20.476;2023-08-01T07:21:11;5.30;;;2.17;;
68866;SDS011;56451;44.804;20.476;2023-08-01T07:23:37;2.72;;;1.77;;
68866;SDS011;56451;44.804;20.476;2023-08-01T07:26:03;4.60;;;1.90;;
68866;SDS011;56451;44.804;20.476;2023-08-01T07:28:29;4.60;;;2.35;;
68866;SDS011;56451;44.804;20.476;2023-08-01T07:31:02;4.53;;;2.00;;
68866;SDS011;56451;44.804;20.476;2023-08-01T07:33:30;4.90;;;2.25;;
68866;SDS011;56451;44.804;20.476;2023-08-01T07:35:56;5.30;;;2.10;;
68866;SDS011;56451;44.804;20.476;2023-08-01T07:38:22;3.42;;;1.85;;
68866;SDS011;56451;44.804;20.476;2023-08-01T07:40:48;4.00;;;1.80;;
68866;SDS011;56451;44.804;20.476;2023-08-01T07:43:15;4.07;;;2.03;;
68866;SDS011;56451;44.804;20.476;2023-08-01T07:45:41;4.53;;;2.05;;
68866;SDS011;56451;44.804;20.476;2023-08-01T07:48:07;5.97;;;2.37;;
68866;SDS011;56451;44.804;20.476;2023-08-01T07:50:33;3.85;;;2.40;;
68866;SDS011;56451;44.804;20.476;2023-08-01T07:52:59;4.03;;;2.35;;
68866;SDS011;56451;44.804;20.476;2023-08-01T07:55:25;4.27;;;2.20;;
68866;SDS011;56451;44.804;20.476;2023-08-01T07:57:50;3.63;;;2.20;;
68866;SDS011;56451;44.804;20.476;2023-08-01T08:00:16;4.43;;;2.30;;
68866;SDS011;56451;44.804;20.476;2023-08-01T08:02:43;5.90;;;2.00;;
68866;SDS011;56451;44.804;20.476;2023-08-01T08:05:09;4.63;;;2.00;;
68866;SDS011;56451;44.804;20.476;2023-08-01T08:07:39;4.15;;;2.10;;
68866;SDS011;56451;44.804;20.476;2023-08-01T08:10:06;4.63;;;1.90;;
68866;SDS011;56451;44.804;20.476;2023-08-01T08:12:32;3.90;;;2.15;;
68866;SDS011;56451;44.804;20.476;2023-08-01T08:14:58;4.20;;;2.40;;
68866;SDS011;56451;44.804;20.476;2023-08-01T08:17:24;4.22;;;2.28;;
68866;SDS011;56451;44.804;20.476;2023-08-01T08:19:50;3.67;;;2.55;;
68866;SDS011;56451;44.804;20.476;2023-08-01T08:22:16;3.10;;;2.23;;
68866;SDS011;56451;44.804;20.476;2023-08-01T08:24:42;3.22;;;1.92;;
68866;SDS011;56451;44.804;20.476;2023-08-01T08:27:08;4.15;;;2.53;;
68866;SDS011;56451;44.804;20.476;2023-08-01T08:29:34;3.63;;;2.50;;
68866;SDS011;56451;44.804;20.476;2023-08-01T08:31:59;3.10;;;2.40;;
68866;SDS011;56451;44.804;20.476;2023-08-01T08:34:25;5.28;;;2.67;;
68866;SDS011;56451;44.804;20.476;2023-08-01T08:36:51;5.60;;;2.80;;
68866;SDS011;56451;44.804;20.476;2023-08-01T08:39:18;5.25;;;2.70;;
68866;SDS011;56451;44.804;20.476;2023-08-01T08:41:48;4.40;;;2.40;;
68866;SDS011;56451;44.804;20.476;2023-08-01T08:44:17;5.57;;;2.60;;
68866;SDS011;56451;44.804;20.476;2023-08-01T08:46:51;8.45;;;2.63;;
68866;SDS011;56451;44.804;20.476;2023-08-01T08:49:18;5.30;;;2.80;;
68866;SDS011;56451;44.804;20.476;2023-08-01T08:51:45;5.47;;;2.25;;
68866;SDS011;56451;44.804;20.476;2023-08-01T08:54:12;3.80;;;2.65;;
68866;SDS011;56451;44.804;20.476;2023-08-01T08:56:40;3.83;;;2.30;;
68866;SDS011;56451;44.804;20.476;2023-08-01T08:59:09;3.25;;;2.20;;
68866;SDS011;56451;44.804;20.476;2023-08-01T09:01:36;4.05;;;2.22;;
68866;SDS011;56451;44.804;20.476;2023-08-01T09:04:03;3.97;;;2.45;;
68866;SDS011;56451;44.804;20.476;2023-08-01T09:06:37;5.72;;;2.47;;
68866;SDS011;56451;44.804;20.476;2023-08-01T09:09:13;6.47;;;2.57;;
68866;SDS011;56451;44.804;20.476;2023-08-01T09:11:49;3.78;;;2.10;;
68866;SDS011;56451;44.804;20.476;2023-08-01T09:14:16;5.90;;;2.70;;
68866;SDS011;56451;44.804;20.476;2023-08-01T09:16:43;9.15;;;2.30;;
68866;SDS011;56451;44.804;20.476;2023-08-01T09:19:10;6.38;;;2.78;;
68866;SDS011;56451;44.804;20.476;2023-08-01T09:21:38;5.00;;;2.30;;
68866;SDS011;56451;44.804;20.476;2023-08-01T09:24:08;3.85;;;2.17;;
68866;SDS011;56451;44.804;20.476;2023-08-01T09:26:35;6.68;;;2.30;;
68866;SDS011;56451;44.804;20.476;2023-08-01T09:29:02;5.25;;;2.22;;
68866;SDS011;56451;44.804;20.476;2023-08-01T09:31:29;4.10;;;2.45;;
68866;SDS011;56451;44.804;20.476;2023-08-01T09:33:55;2.77;;;2.10;;
68866;SDS011;56451;44.804;20.476;2023-08-01T09:36:22;6.32;;;2.42;;
68866;SDS011;56451;44.804;20.476;2023-08-01T09:38:49;3.97;;;2.28;;
68866;SDS011;56451;44.804;20.476;2023-08-01T09:41:18;3.20;;;2.58;;
68866;SDS011;56451;44.804;20.476;2023-08-01T09:43:45;3.80;;;2.15;;
68866;SDS011;56451;44.804;20.476;2023-08-01T09:46:13;7.37;;;2.20;;
68866;SDS011;56451;44.804;20.476;2023-08-01T09:48:39;5.00;;;2.25;;
68866;SDS011;56451;44.804;20.476;2023-08-01T09:51:09;4.90;;;2.53;;
68866;SDS011;56451;44.804;20.476;2023-08-01T09:53:47;4.50;;;2.22;;
68866;SDS011;56451;44.804;20.476;2023-08-01T09:56:25;4.13;;;2.22;;
68866;SDS011;56451;44.804;20.476;2023-08-01T09:58:52;3.90;;;2.37;;
68866;SDS011;56451;44.804;20.476;2023-08-01T10:01:20;4.28;;;2.63;;
68866;SDS011;56451;44.804;20.476;2023-08-01T10:03:49;5.05;;;2.58;;
68866;SDS011;56451;44.804;20.476;2023-08-01T10:06:28;24.58;;;3.33;;
68866;SDS011;56451;44.804;20.476;2023-08-01T10:08:56;4.53;;;2.42;;
68866;SDS011;56451;44.804;20.476;2023-08-01T10:11:22;6.30;;;2.33;;
68866;SDS011;56451;44.804;20.476;2023-08-01T10:13:48;4.97;;;2.40;;
68866;SDS011;56451;44.804;20.476;2023-08-01T10:16:15;4.32;;;2.20;;
68866;SDS011;56451;44.804;20.476;2023-08-01T10:18:42;4.93;;;2.15;;
68866;SDS011;56451;44.804;20.476;2023-08-01T10:21:13;3.70;;;2.50;;
68866;SDS011;56451;44.804;20.476;2023-08-01T10:23:40;6.33;;;2.90;;
68866;SDS011;56451;44.804;20.476;2023-08-01T10:26:07;3.80;;;2.53;;
68866;SDS011;56451;44.804;20.476;2023-08-01T10:28:38;4.47;;;3.17;;
68866;SDS011;56451;44.804;20.476;2023-08-01T10:31:10;4.45;;;2.50;;
68866;SDS011;56451;44.804;20.476;2023-08-01T10:33:41;6.47;;;2.85;;
68866;SDS011;56451;44.804;20.476;2023-08-01T10:38:53;2.55;;;2.20;;
68866;SDS011;56451;44.804;20.476;2023-08-01T10:41:29;4.28;;;2.35;;
68866;SDS011;56451;44.804;20.476;2023-08-01T10:44:10;5.07;;;2.53;;
68866;SDS011;56451;44.804;20.476;2023-08-01T10:46:50;4.13;;;2.38;;
68866;SDS011;56451;44.804;20.476;2023-08-01T10:49:19;3.77;;;2.40;;
68866;SDS011;56451;44.804;20.476;2023-08-01T10:51:49;4.85;;;2.60;;
68866;SDS011;56451;44.804;20.476;2023-08-01T10:54:22;3.25;;;2.33;;
68866;SDS011;56451;44.804;20.476;2023-08-01T10:56:49;4.97;;;2.55;;
68866;SDS011;56451;44.804;20.476;2023-08-01T10:59:16;4.10;;;2.53;;
68866;SDS011;56451;44.804;20.476;2023-08-01T11:01:47;3.30;;;2.20;;
68866;SDS011;56451;44.804;20.476;2023-08-01T11:04:18;4.60;;;2.40;;
68866;SDS011;56451;44.804;20.476;2023-08-01T11:06:49;5.28;;;2.30;;
68866;SDS011;56451;44.804;20.476;2023-08-01T11:09:19;4.30;;;2.70;;
68866;SDS011;56451;44.804;20.476;2023-08-01T11:11:50;3.50;;;2.38;;
68866;SDS011;56451;44.804;20.476;2023-08-01T11:14:21;4.67;;;2.23;;
68866;SDS011;56451;44.804;20.476;2023-08-01T11:16:48;3.25;;;2.50;;
68866;SDS011;56451;44.804;20.476;2023-08-01T11:19:23;4.75;;;2.70;;
68866;SDS011;56451;44.804;20.476;2023-08-01T11:21:50;3.95;;;2.60;;
68866;SDS011;56451;44.804;20.476;2023-08-01T11:24:18;3.83;;;2.50;;
68866;SDS011;56451;44.804;20.476;2023-08-01T11:26:45;4.33;;;2.63;;
68866;SDS011;56451;44.804;20.476;2023-08-01T11:29:13;3.75;;;2.22;;
68866;SDS011;56451;44.804;20.476;2023-08-01T11:31:39;4.55;;;2.80;;
68866;SDS011;56451;44.804;20.476;2023-08-01T11:34:08;5.65;;;2.50;;
68866;SDS011;56451;44.804;20.476;2023-08-01T11:36:35;4.20;;;2.25;;
68866;SDS011;56451;44.804;20.476;2023-08-01T11:39:02;3.60;;;2.40;;
68866;SDS011;56451;44.804;20.476;2023-08-01T11:41:29;5.05;;;2.70;;
68866;SDS011;56451;44.804;20.476;2023-08-01T11:44:00;4.63;;;2.38;;
68866;SDS011;56451;44.804;20.476;2023-08-01T11:46:30;5.38;;;2.55;;
68866;SDS011;56451;44.804;20.476;2023-08-01T11:48:58;5.93;;;2.72;;
68866;SDS011;56451;44.804;20.476;2023-08-01T11:51:24;4.77;;;2.80;;
68866;SDS011;56451;44.804;20.476;2023-08-01T11:54:02;4.95;;;2.78;;
68866;SDS011;56451;44.804;20.476;2023-08-01T11:56:29;5.55;;;2.80;;
68866;SDS011;56451;44.804;20.476;2023-08-01T11:58:58;3.53;;;2.35;;
68866;SDS011;56451;44.804;20.476;2023-08-01T12:01:25;2.73;;;2.10;;
68866;SDS011;56451;44.804;20.476;2023-08-01T12:03:52;3.85;;;2.55;;
68866;SDS011;56451;44.804;20.476;2023-08-01T12:06:20;3.92;;;2.30;;
68866;SDS011;56451;44.804;20.476;2023-08-01T12:08:51;4.40;;;2.80;;
68866;SDS011;56451;44.804;20.476;2023-08-01T12:11:24;4.25;;;2.38;;
68866;SDS011;56451;44.804;20.476;2023-08-01T12:16:46;4.45;;;3.30;;
68866;SDS011;56451;44.804;20.476;2023-08-01T12:19:18;3.47;;;2.50;;
68866;SDS011;56451;44.804;20.476;2023-08-01T12:21:45;4.28;;;2.70;;
68866;SDS011;56451;44.804;20.476;2023-08-01T12:24:11;3.17;;;2.38;;
68866;SDS011;56451;44.804;20.476;2023-08-01T12:26:37;4.40;;;2.30;;
68866;SDS011;56451;44.804;20.476;2023-08-01T12:29:03;4.43;;;2.70;;
68866;SDS011;56451;44.804;20.476;2023-08-01T12:31:29;4.53;;;2.55;;
68866;SDS011;56451;44.804;20.476;2023-08-01T12:33:55;4.80;;;2.47;;
68866;SDS011;56451;44.804;20.476;2023-08-01T12:36:21;9.18;;;4.13;;
68866;SDS011;56451;44.804;20.476;2023-08-01T12:38:47;11.93;;;4.93;;
68866;SDS011;56451;44.804;20.476;2023-08-01T12:41:14;10.32;;;5.22;;
68866;SDS011;56451;44.804;20.476;2023-08-01T12:43:39;6.37;;;3.70;;
68866;SDS011;56451;44.804;20.476;2023-08-01T12:46:05;4.30;;;2.50;;
68866;SDS011;56451;44.804;20.476;2023-08-01T12:48:31;5.50;;;3.20;;
68866;SDS011;56451;44.804;20.476;2023-08-01T12:50:58;5.60;;;2.97;;
68866;SDS011;56451;44.804;20.476;2023-08-01T12:53:24;4.65;;;2.88;;
68866;SDS011;56451;44.804;20.476;2023-08-01T12:55:54;4.97;;;2.78;;
68866;SDS011;56451;44.804;20.476;2023-08-01T12:58:20;6.82;;;3.00;;
68866;SDS011;56451;44.804;20.476;2023-08-01T13:00:46;4.80;;;2.83;;
68866;SDS011;56451;44.804;20.476;2023-08-01T13:03:12;3.38;;;3.08;;
68866;SDS011;56451;44.804;20.476;2023-08-01T13:05:38;4.47;;;2.80;;
68866;SDS011;56451;44.804;20.476;2023-08-01T13:08:05;6.22;;;4.13;;
68866;SDS011;56451;44.804;20.476;2023-08-01T13:10:33;5.67;;;2.90;;
68866;SDS011;56451;44.804;20.476;2023-08-01T13:13:01;6.03;;;2.83;;
68866;SDS011;56451;44.804;20.476;2023-08-01T13:15:28;3.90;;;2.70;;
68866;SDS011;56451;44.804;20.476;2023-08-01T13:17:54;3.92;;;3.10;;
68866;SDS011;56451;44.804;20.476;2023-08-01T13:20:21;4.75;;;2.92;;
68866;SDS011;56451;44.804;20.476;2023-08-01T13:22:48;5.23;;;3.00;;
68866;SDS011;56451;44.804;20.476;2023-08-01T13:25:14;4.47;;;2.88;;
68866;SDS011;56451;44.804;20.476;2023-08-01T13:27:41;4.20;;;2.78;;
68866;SDS011;56451;44.804;20.476;2023-08-01T13:30:07;3.13;;;2.58;;
68866;SDS011;56451;44.804;20.476;2023-08-01T13:32:34;3.42;;;2.60;;
68866;SDS011;56451;44.804;20.476;2023-08-01T13:35:00;5.93;;;2.87;;
68866;SDS011;56451;44.804;20.476;2023-08-01T13:37:27;3.28;;;2.50;;
68866;SDS011;56451;44.804;20.476;2023-08-01T13:39:56;5.70;;;2.78;;
68866;SDS011;56451;44.804;20.476;2023-08-01T13:42:22;6.00;;;2.50;;
68866;SDS011;56451;44.804;20.476;2023-08-01T13:44:48;3.27;;;2.80;;
68866;SDS011;56451;44.804;20.476;2023-08-01T13:47:14;4.10;;;2.63;;
68866;SDS011;56451;44.804;20.476;2023-08-01T13:49:40;3.78;;;2.75;;
68866;SDS011;56451;44.804;20.476;2023-08-01T13:52:06;4.43;;;2.37;;
68866;SDS011;56451;44.804;20.476;2023-08-01T13:54:32;3.33;;;2.42;;
68866;SDS011;56451;44.804;20.476;2023-08-01T13:56:58;2.97;;;2.40;;
68866;SDS011;56451;44.804;20.476;2023-08-01T13:59:23;3.60;;;2.70;;
68866;SDS011;56451;44.804;20.476;2023-08-01T14:01:49;3.53;;;2.65;;
68866;SDS011;56451;44.804;20.476;2023-08-01T14:04:15;4.72;;;2.78;;
68866;SDS011;56451;44.804;20.476;2023-08-01T14:06:41;3.60;;;2.50;;
68866;SDS011;56451;44.804;20.476;2023-08-01T14:09:08;3.90;;;2.38;;
68866;SDS011;56451;44.804;20.476;2023-08-01T14:11:35;12.10;;;2.65;;
68866;SDS011;56451;44.804;20.476;2023-08-01T14:14:01;8.63;;;3.03;;
68866;SDS011;56451;44.804;20.476;2023-08-01T14:16:28;7.35;;;3.33;;
68866;SDS011;56451;44.804;20.476;2023-08-01T14:18:54;9.87;;;2.67;;
68866;SDS011;56451;44.804;20.476;2023-08-01T14:21:20;4.93;;;2.88;;
68866;SDS011;56451;44.804;20.476;2023-08-01T14:23:47;6.88;;;2.70;;
68866;SDS011;56451;44.804;20.476;2023-08-01T14:26:13;9.60;;;2.92;;
68866;SDS011;56451;44.804;20.476;2023-08-01T14:28:39;7.30;;;3.22;;
68866;SDS011;56451;44.804;20.476;2023-08-01T14:31:05;8.27;;;2.47;;
68866;SDS011;56451;44.804;20.476;2023-08-01T14:33:33;6.00;;;2.80;;
68866;SDS011;56451;44.804;20.476;2023-08-01T14:35:59;7.18;;;2.47;;
68866;SDS011;56451;44.804;20.476;2023-08-01T14:38:25;3.50;;;2.55;;
68866;SDS011;56451;44.804;20.476;2023-08-01T14:40:54;3.55;;;2.55;;
68866;SDS011;56451;44.804;20.476;2023-08-01T14:43:20;3.63;;;2.60;;
68866;SDS011;56451;44.804;20.476;2023-08-01T14:45:46;7.25;;;2.80;;